sensor_id;sensor_type;location;lat;lon;timestamp;pressure;altitude;pressure_sealevel;temperature;humidity
68654;BME280;55636;51.108;13.622;2023-02-03T00:00:06;101071.06;;;3.14;64.30
68654;BME280;55636;51.108;13.622;2023-02-03T00:01:15;101073.59;;;3.16;64.24
68654;BME280;55636;51.108;13.622;2023-02-03T00:02:18;101066.25;;;3.16;64.22
68654;BME280;55636;51.108;13.622;2023-02-03T00:03:20;101064.56;;;3.15;64.21
68654;BME280;55636;51.108;13.622;2023-02-03T00:04:22;101069.81;;;3.17;64.22
68654;BME280;55636;51.108;13.622;2023-02-03T00:05:25;101069.81;;;3.17;64.21
68654;BME280;55636;51.108;13.622;2023-02-03T00:06:30;101067.94;;;3.17;64.36
68654;BME280;55636;51.108;13.622;2023-02-03T00:07:33;101060.59;;;3.18;64.21
68654;BME280;55636;51.108;13.622;2023-02-03T00:08:37;101064.16;;;3.18;64.38
68654;BME280;55636;51.108;13.622;2023-02-03T00:09:40;101069.41;;;3.20;64.30
68654;BME280;55636;51.108;13.622;2023-02-03T00:10:43;101067.56;;;3.20;64.35
68654;BME280;55636;51.108;13.622;2023-02-03T00:11:45;101062.09;;;3.20;64.31
68654;BME280;55636;51.108;13.622;2023-02-03T00:12:49;101062.09;;;3.20;64.27
68654;BME280;55636;51.108;13.622;2023-02-03T00:13:53;101060.00;;;3.22;64.37
68654;BME280;55636;51.108;13.622;2023-02-03T00:14:57;101061.91;;;3.22;64.32
68654;BME280;55636;51.108;13.622;2023-02-03T00:15:59;101064.63;;;3.22;64.22
68654;BME280;55636;51.108;13.622;2023-02-03T00:17:03;101060.84;;;3.23;64.29
68654;BME280;55636;51.108;13.622;2023-02-03T00:18:06;101059.78;;;3.24;64.55
68654;BME280;55636;51.108;13.622;2023-02-03T00:19:08;101057.94;;;3.24;64.38
68654;BME280;55636;51.108;13.622;2023-02-03T00:20:11;101052.47;;;3.24;64.55
68654;BME280;55636;51.108;13.622;2023-02-03T00:21:13;101064.03;;;3.26;64.46
68654;BME280;55636;51.108;13.622;2023-02-03T00:22:16;101053.09;;;3.26;64.41
68654;BME280;55636;51.108;13.622;2023-02-03T00:23:18;101060.25;;;3.28;64.31
68654;BME280;55636;51.108;13.622;2023-02-03T00:24:21;101057.53;;;3.28;64.34
68654;BME280;55636;51.108;13.622;2023-02-03T00:25:24;101050.19;;;3.28;64.31
68654;BME280;55636;51.108;13.622;2023-02-03T00:26:27;101055.66;;;3.28;64.30
68654;BME280;55636;51.108;13.622;2023-02-03T00:27:30;101056.50;;;3.29;64.24
68654;BME280;55636;51.108;13.622;2023-02-03T00:28:33;101059.22;;;3.29;64.37
68654;BME280;55636;51.108;13.622;2023-02-03T00:29:35;101054.59;;;3.29;64.31
68654;BME280;55636;51.108;13.622;2023-02-03T00:30:37;101056.28;;;3.30;64.28
68654;BME280;55636;51.108;13.622;2023-02-03T00:31:41;101059.88;;;3.31;64.39
68654;BME280;55636;51.108;13.622;2023-02-03T00:32:43;101051.69;;;3.31;64.45
68654;BME280;55636;51.108;13.622;2023-02-03T00:33:52;101050.63;;;3.32;64.38
68654;BME280;55636;51.108;13.622;2023-02-03T00:34:55;101051.50;;;3.32;64.48
68654;BME280;55636;51.108;13.622;2023-02-03T00:35:57;101049.59;;;3.33;64.31
68654;BME280;55636;51.108;13.622;2023-02-03T00:37:02;101045.00;;;3.33;64.32
68654;BME280;55636;51.108;13.622;2023-02-03T00:38:05;101046.88;;;3.33;64.41
68654;BME280;55636;51.108;13.622;2023-02-03T00:39:07;101041.19;;;3.34;64.28
68654;BME280;55636;51.108;13.622;2023-02-03T00:40:10;101043.94;;;3.34;64.36
68654;BME280;55636;51.108;13.622;2023-02-03T00:41:12;101040.38;;;3.34;64.35
68654;BME280;55636;51.108;13.622;2023-02-03T00:42:15;101030.94;;;3.36;64.42
68654;BME280;55636;51.108;13.622;2023-02-03T00:43:18;101037.22;;;3.37;64.52
68654;BME280;55636;51.108;13.622;2023-02-03T00:44:21;101036.41;;;3.36;64.61
68654;BME280;55636;51.108;13.622;2023-02-03T00:45:25;101029.03;;;3.37;64.49
68654;BME280;55636;51.108;13.622;2023-02-03T00:46:29;101020.00;;;3.36;64.64
68654;BME280;55636;51.108;13.622;2023-02-03T00:47:31;101021.91;;;3.36;64.52
68654;BME280;55636;51.108;13.622;2023-02-03T00:48:33;101023.56;;;3.37;64.54
68654;BME280;55636;51.108;13.622;2023-02-03T00:49:36;101023.56;;;3.37;64.67
68654;BME280;55636;51.108;13.622;2023-02-03T00:50:38;101009.09;;;3.36;64.79
68654;BME280;55636;51.108;13.622;2023-02-03T00:51:41;101013.50;;;3.37;64.58
68654;BME280;55636;51.108;13.622;2023-02-03T00:52:43;101009.09;;;3.36;64.64
68654;BME280;55636;51.108;13.622;2023-02-03T00:53:46;101010.78;;;3.37;64.54
68654;BME280;55636;51.108;13.622;2023-02-03T00:54:49;101009.75;;;3.38;64.60
68654;BME280;55636;51.108;13.622;2023-02-03T00:55:51;100997.94;;;3.38;64.54
68654;BME280;55636;51.108;13.622;2023-02-03T00:56:56;101000.69;;;3.38;64.48
68654;BME280;55636;51.108;13.622;2023-02-03T00:57:59;100995.22;;;3.38;64.48
68654;BME280;55636;51.108;13.622;2023-02-03T00:59:01;100995.03;;;3.39;64.56
68654;BME280;55636;51.108;13.622;2023-02-03T01:00:06;100995.03;;;3.39;64.46
68654;BME280;55636;51.108;13.622;2023-02-03T01:01:10;100989.56;;;3.39;64.33
68654;BME280;55636;51.108;13.622;2023-02-03T01:02:13;100984.97;;;3.40;64.27
68654;BME280;55636;51.108;13.622;2023-02-03T01:03:15;100990.44;;;3.40;64.40
68654;BME280;55636;51.108;13.622;2023-02-03T01:04:18;100987.69;;;3.40;64.50
68654;BME280;55636;51.108;13.622;2023-02-03T01:05:20;100987.91;;;3.38;64.67
68654;BME280;55636;51.108;13.622;2023-02-03T01:06:22;100986.81;;;3.39;64.71
68654;BME280;55636;51.108;13.622;2023-02-03T01:07:24;100978.63;;;3.39;64.60
68654;BME280;55636;51.108;13.622;2023-02-03T01:08:27;100981.38;;;3.39;64.46
68654;BME280;55636;51.108;13.622;2023-02-03T01:09:32;100980.53;;;3.39;64.44
68654;BME280;55636;51.108;13.622;2023-02-03T01:10:37;100974.03;;;3.40;64.46
68654;BME280;55636;51.108;13.622;2023-02-03T01:11:39;100971.50;;;3.38;64.31
68654;BME280;55636;51.108;13.622;2023-02-03T01:12:41;100972.34;;;3.39;64.43
68654;BME280;55636;51.108;13.622;2023-02-03T01:13:46;100963.09;;;3.40;64.64
68654;BME280;55636;51.108;13.622;2023-02-03T01:14:49;100960.56;;;3.38;64.48
68654;BME280;55636;51.108;13.622;2023-02-03T01:15:59;100953.22;;;3.39;64.46
68654;BME280;55636;51.108;13.622;2023-02-03T01:17:01;100955.13;;;3.38;64.65
68654;BME280;55636;51.108;13.622;2023-02-03T01:18:04;100949.66;;;3.38;64.45
68654;BME280;55636;51.108;13.622;2023-02-03T01:19:06;100949.81;;;3.37;64.31
68654;BME280;55636;51.108;13.622;2023-02-03T01:20:09;100937.25;;;3.36;64.42
68654;BME280;55636;51.108;13.622;2023-02-03T01:21:18;100948.34;;;3.34;64.50
68654;BME280;55636;51.108;13.622;2023-02-03T01:22:21;100943.94;;;3.33;64.44
68654;BME280;55636;51.108;13.622;2023-02-03T01:23:26;100940.56;;;3.31;64.44
68654;BME280;55636;51.108;13.622;2023-02-03T01:24:29;100944.31;;;3.30;64.57
68654;BME280;55636;51.108;13.622;2023-02-03T01:25:34;100933.59;;;3.29;64.47
68654;BME280;55636;51.108;13.622;2023-02-03T01:26:36;100929.16;;;3.28;64.64
68654;BME280;55636;51.108;13.622;2023-02-03T01:27:39;100930.22;;;3.26;64.44
68654;BME280;55636;51.108;13.622;2023-02-03T01:28:41;100930.22;;;3.26;64.46
68654;BME280;55636;51.108;13.622;2023-02-03T01:29:45;100924.94;;;3.25;64.57
68654;BME280;55636;51.108;13.622;2023-02-03T01:30:47;100925.16;;;3.23;64.62
68654;BME280;55636;51.108;13.622;2023-02-03T01:31:50;100927.25;;;3.21;64.67
68654;BME280;55636;51.108;13.622;2023-02-03T01:32:52;100917.16;;;3.22;64.66
68654;BME280;55636;51.108;13.622;2023-02-03T01:33:55;100915.25;;;3.22;64.72
68654;BME280;55636;51.108;13.622;2023-02-03T01:34:58;100910.22;;;3.19;64.73
68654;BME280;55636;51.108;13.622;2023-02-03T01:36:01;100907.47;;;3.19;64.61
68654;BME280;55636;51.108;13.622;2023-02-03T01:37:04;100908.53;;;3.18;64.63
68654;BME280;55636;51.108;13.622;2023-02-03T01:38:09;100897.59;;;3.18;64.67
68654;BME280;55636;51.108;13.622;2023-02-03T01:39:11;100890.44;;;3.17;64.65
68654;BME280;55636;51.108;13.622;2023-02-03T01:40:14;100881.41;;;3.17;64.57
68654;BME280;55636;51.108;13.622;2023-02-03T01:41:19;100887.09;;;3.15;64.65
68654;BME280;55636;51.108;13.622;2023-02-03T01:42:22;100892.53;;;3.15;64.48
68654;BME280;55636;51.108;13.622;2023-02-03T01:43:29;100896.09;;;3.16;64.46
68654;BME280;55636;51.108;13.622;2023-02-03T01:44:54;100900.06;;;3.13;64.43
68654;BME280;55636;51.108;13.622;2023-02-03T01:45:58;100903.66;;;3.14;64.40
68654;BME280;55636;51.108;13.622;2023-02-03T01:47:01;100900.06;;;3.13;64.60
68654;BME280;55636;51.108;13.622;2023-02-03T01:48:07;100904.03;;;3.11;64.64
68654;BME280;55636;51.108;13.622;2023-02-03T01:51:20;100896.06;;;3.09;64.64
68654;BME280;55636;51.108;13.622;2023-02-03T01:52:23;100899.63;;;3.09;64.77
68654;BME280;55636;51.108;13.622;2023-02-03T01:53:27;100898.78;;;3.09;64.71
68654;BME280;55636;51.108;13.622;2023-02-03T01:54:32;100887.03;;;3.08;64.83
68654;BME280;55636;51.108;13.622;2023-02-03T01:55:42;100888.06;;;3.07;64.84
68654;BME280;55636;51.108;13.622;2023-02-03T01:56:49;100891.44;;;3.09;64.93
68654;BME280;55636;51.108;13.622;2023-02-03T01:57:58;100886.16;;;3.08;64.77
68654;BME280;55636;51.108;13.622;2023-02-03T01:59:02;100886.16;;;3.08;64.93
68654;BME280;55636;51.108;13.622;2023-02-03T02:00:05;100871.69;;;3.07;64.69
68654;BME280;55636;51.108;13.622;2023-02-03T02:01:14;100874.63;;;3.06;64.81
68654;BME280;55636;51.108;13.622;2023-02-03T02:02:20;100871.03;;;3.05;64.74
68654;BME280;55636;51.108;13.622;2023-02-03T02:03:54;100859.28;;;3.05;64.97
68654;BME280;55636;51.108;13.622;2023-02-03T02:05:12;100862.84;;;3.05;64.85
68654;BME280;55636;51.108;13.622;2023-02-03T02:06:16;100860.13;;;3.05;64.74
68654;BME280;55636;51.108;13.622;2023-02-03T02:07:18;100850.44;;;3.03;65.00
68654;BME280;55636;51.108;13.622;2023-02-03T02:08:21;100841.41;;;3.02;64.84
68654;BME280;55636;51.108;13.622;2023-02-03T02:09:25;100842.25;;;3.03;64.85
68654;BME280;55636;51.108;13.622;2023-02-03T02:10:29;100842.66;;;3.00;65.00
68654;BME280;55636;51.108;13.622;2023-02-03T02:11:31;100840.13;;;2.98;65.01
68654;BME280;55636;51.108;13.622;2023-02-03T02:12:35;100837.19;;;3.00;65.07
68654;BME280;55636;51.108;13.622;2023-02-03T02:13:38;100835.50;;;2.99;65.05
68654;BME280;55636;51.108;13.622;2023-02-03T02:14:42;100831.06;;;2.98;65.09
68654;BME280;55636;51.108;13.622;2023-02-03T02:15:59;100826.47;;;2.98;65.07
68654;BME280;55636;51.108;13.622;2023-02-03T02:17:12;100830.03;;;2.99;65.09
68654;BME280;55636;51.108;13.622;2023-02-03T02:21:26;100834.66;;;2.98;65.18
68654;BME280;55636;51.108;13.622;2023-02-03T02:25:45;100831.47;;;2.95;65.51
68654;BME280;55636;51.108;13.622;2023-02-03T02:26:56;100834.22;;;2.95;65.58
68654;BME280;55636;51.108;13.622;2023-02-03T02:29:46;100812.38;;;2.95;65.55
68654;BME280;55636;51.108;13.622;2023-02-03T02:33:00;100810.69;;;2.93;65.49
68654;BME280;55636;51.108;13.622;2023-02-03T02:37:06;100791.78;;;2.92;65.86
68654;BME280;55636;51.108;13.622;2023-02-03T02:39:52;100788.59;;;2.88;65.89
68654;BME280;55636;51.108;13.622;2023-02-03T02:41:07;100778.56;;;2.89;66.01
68654;BME280;55636;51.108;13.622;2023-02-03T02:42:33;100783.16;;;2.88;66.15
68654;BME280;55636;51.108;13.622;2023-02-03T02:43:44;100780.41;;;2.88;66.06
68654;BME280;55636;51.108;13.622;2023-02-03T02:44:58;100777.69;;;2.88;66.29
68654;BME280;55636;51.108;13.622;2023-02-03T02:46:09;100760.47;;;2.88;66.32
68654;BME280;55636;51.108;13.622;2023-02-03T02:47:17;100764.25;;;2.87;66.31
68654;BME280;55636;51.108;13.622;2023-02-03T02:48:22;100759.63;;;2.87;66.25
68654;BME280;55636;51.108;13.622;2023-02-03T02:49:42;100752.50;;;2.86;66.36
68654;BME280;55636;51.108;13.622;2023-02-03T02:50:47;100754.38;;;2.86;66.40
68654;BME280;55636;51.108;13.622;2023-02-03T02:51:51;100754.16;;;2.87;66.36
68654;BME280;55636;51.108;13.622;2023-02-03T02:52:55;100752.28;;;2.88;66.37
68654;BME280;55636;51.108;13.622;2023-02-03T02:54:01;100744.94;;;2.88;66.41
68654;BME280;55636;51.108;13.622;2023-02-03T02:55:16;100752.75;;;2.91;66.53
68654;BME280;55636;51.108;13.622;2023-02-03T02:56:22;100729.44;;;2.89;66.50
68654;BME280;55636;51.108;13.622;2023-02-03T02:57:26;100729.44;;;2.89;66.60
68654;BME280;55636;51.108;13.622;2023-02-03T02:58:31;100724.78;;;2.89;66.62
68654;BME280;55636;51.108;13.622;2023-02-03T02:59:34;100722.72;;;2.91;66.60
68654;BME280;55636;51.108;13.622;2023-02-03T03:00:39;100726.50;;;2.90;66.77
68654;BME280;55636;51.108;13.622;2023-02-03T03:01:42;100714.53;;;2.91;66.81
68654;BME280;55636;51.108;13.622;2023-02-03T03:02:45;100720.81;;;2.92;66.81
68654;BME280;55636;51.108;13.622;2023-02-03T03:03:49;100714.31;;;2.93;66.84
68654;BME280;55636;51.108;13.622;2023-02-03T03:04:51;100705.28;;;2.92;67.11
68654;BME280;55636;51.108;13.622;2023-02-03T03:07:10;100693.97;;;2.96;67.00
68654;BME280;55636;51.108;13.622;2023-02-03T03:08:16;100701.97;;;2.97;67.12
68654;BME280;55636;51.108;13.622;2023-02-03T03:09:24;100696.50;;;2.97;66.99
68654;BME280;55636;51.108;13.622;2023-02-03T03:10:30;100698.19;;;2.98;67.26
68654;BME280;55636;51.108;13.622;2023-02-03T03:11:40;100686.25;;;2.99;67.31
68654;BME280;55636;51.108;13.622;2023-02-03T03:12:48;100694.22;;;3.01;67.17
68654;BME280;55636;51.108;13.622;2023-02-03T03:13:54;100694.00;;;3.02;67.29
68654;BME280;55636;51.108;13.622;2023-02-03T03:15:00;100692.09;;;3.03;67.42
68654;BME280;55636;51.108;13.622;2023-02-03T03:16:07;100686.66;;;3.03;67.33
68654;BME280;55636;51.108;13.622;2023-02-03T03:17:15;100691.72;;;3.06;67.44
68654;BME280;55636;51.108;13.622;2023-02-03T03:18:30;100687.94;;;3.07;67.51
68654;BME280;55636;51.108;13.622;2023-02-03T03:19:38;100684.16;;;3.08;67.60
68654;BME280;55636;51.108;13.622;2023-02-03T03:20:45;100678.69;;;3.08;67.57
68654;BME280;55636;51.108;13.622;2023-02-03T03:21:52;100683.94;;;3.09;67.46
68654;BME280;55636;51.108;13.622;2023-02-03T03:23:02;100685.63;;;3.11;67.55
68654;BME280;55636;51.108;13.622;2023-02-03T03:24:09;100681.03;;;3.11;67.70
68654;BME280;55636;51.108;13.622;2023-02-03T03:25:20;100681.66;;;3.13;67.62
68654;BME280;55636;51.108;13.622;2023-02-03T03:26:45;100677.88;;;3.14;67.69
68654;BME280;55636;51.108;13.622;2023-02-03T03:27:55;100684.19;;;3.15;67.79
68654;BME280;55636;51.108;13.622;2023-02-03T03:30:14;100674.75;;;3.17;67.89
68654;BME280;55636;51.108;13.622;2023-02-03T03:31:18;100673.69;;;3.18;67.93
68654;BME280;55636;51.108;13.622;2023-02-03T03:32:21;100678.13;;;3.19;68.10
68654;BME280;55636;51.108;13.622;2023-02-03T03:33:24;100668.91;;;3.20;68.23
68654;BME280;55636;51.108;13.622;2023-02-03T03:34:27;100665.13;;;3.21;68.56
68654;BME280;55636;51.108;13.622;2023-02-03T03:36:02;100675.63;;;3.24;68.83
68654;BME280;55636;51.108;13.622;2023-02-03T03:37:11;100664.50;;;3.26;69.00
68654;BME280;55636;51.108;13.622;2023-02-03T03:38:27;100667.88;;;3.28;69.21
68654;BME280;55636;51.108;13.622;2023-02-03T03:39:55;100663.03;;;3.30;69.27
68654;BME280;55636;51.108;13.622;2023-02-03T03:41:03;100668.94;;;3.34;69.29
68654;BME280;55636;51.108;13.622;2023-02-03T03:42:13;100655.94;;;3.36;69.60
68654;BME280;55636;51.108;13.622;2023-02-03T03:43:23;100665.59;;;3.38;69.73
68654;BME280;55636;51.108;13.622;2023-02-03T03:44:35;100655.28;;;3.40;70.01
68654;BME280;55636;51.108;13.622;2023-02-03T03:45:46;100666.00;;;3.42;69.94
68654;BME280;55636;51.108;13.622;2023-02-03T03:46:56;100665.63;;;3.45;70.31
68654;BME280;55636;51.108;13.622;2023-02-03T03:48:15;100663.28;;;3.49;70.32
68654;BME280;55636;51.108;13.622;2023-02-03T03:49:19;100658.47;;;3.51;70.30
68654;BME280;55636;51.108;13.622;2023-02-03T03:50:28;100663.50;;;3.54;70.52
68654;BME280;55636;51.108;13.622;2023-02-03T03:51:37;100654.28;;;3.55;70.65
68654;BME280;55636;51.108;13.622;2023-02-03T03:52:44;100656.63;;;3.58;70.59
68654;BME280;55636;51.108;13.622;2023-02-03T03:53:49;100654.50;;;3.60;70.76
68654;BME280;55636;51.108;13.622;2023-02-03T03:54:53;100652.00;;;3.65;70.70
68654;BME280;55636;51.108;13.622;2023-02-03T03:55:59;100650.13;;;3.66;70.82
68654;BME280;55636;51.108;13.622;2023-02-03T03:57:09;100642.31;;;3.69;70.77
68654;BME280;55636;51.108;13.622;2023-02-03T03:58:20;100646.31;;;3.73;71.05
68654;BME280;55636;51.108;13.622;2023-02-03T03:59:26;100632.47;;;3.75;70.97
68654;BME280;55636;51.108;13.622;2023-02-03T04:00:31;100631.22;;;3.78;71.03
68654;BME280;55636;51.108;13.622;2023-02-03T04:01:36;100617.13;;;3.81;71.02
68654;BME280;55636;51.108;13.622;2023-02-03T04:02:45;100624.88;;;3.84;71.26
68654;BME280;55636;51.108;13.622;2023-02-03T04:03:55;100612.50;;;3.88;71.22
68654;BME280;55636;51.108;13.622;2023-02-03T04:05:01;100611.25;;;3.90;71.13
68654;BME280;55636;51.108;13.622;2023-02-03T04:06:05;100603.66;;;3.92;71.19
68654;BME280;55636;51.108;13.622;2023-02-03T04:07:09;100599.66;;;3.95;71.16
68654;BME280;55636;51.108;13.622;2023-02-03T04:08:13;100595.66;;;3.98;71.15
68654;BME280;55636;51.108;13.622;2023-02-03T04:09:15;100582.44;;;4.01;71.04
68654;BME280;55636;51.108;13.622;2023-02-03T04:10:27;100584.72;;;4.04;71.37
68654;BME280;55636;51.108;13.622;2023-02-03T04:11:31;100578.22;;;4.05;71.24
68654;BME280;55636;51.108;13.622;2023-02-03T04:12:52;100571.25;;;4.09;71.32
68654;BME280;55636;51.108;13.622;2023-02-03T04:13:54;100571.03;;;4.11;71.34
68654;BME280;55636;51.108;13.622;2023-02-03T04:14:56;100571.69;;;4.13;71.42
68654;BME280;55636;51.108;13.622;2023-02-03T04:15:59;100568.50;;;4.16;71.42
68654;BME280;55636;51.108;13.622;2023-02-03T04:17:01;100572.72;;;4.19;71.46
68654;BME280;55636;51.108;13.622;2023-02-03T04:18:05;100573.97;;;4.23;71.57
68654;BME280;55636;51.108;13.622;2023-02-03T04:19:07;100568.09;;;4.26;71.68
68654;BME280;55636;51.108;13.622;2023-02-03T04:20:10;100573.34;;;4.28;71.61
68654;BME280;55636;51.108;13.622;2023-02-03T04:21:13;100557.56;;;4.30;71.55
68654;BME280;55636;51.108;13.622;2023-02-03T04:22:15;100568.06;;;4.33;71.59
68654;BME280;55636;51.108;13.622;2023-02-03T04:23:19;100558.59;;;4.35;71.67
68654;BME280;55636;51.108;13.622;2023-02-03T04:24:22;100556.28;;;4.39;71.63
68654;BME280;55636;51.108;13.622;2023-02-03T04:25:25;100560.69;;;4.40;71.51
68654;BME280;55636;51.108;13.622;2023-02-03T04:26:27;100560.25;;;4.43;71.32
68654;BME280;55636;51.108;13.622;2023-02-03T04:27:29;100559.00;;;4.46;71.58
68654;BME280;55636;51.108;13.622;2023-02-03T04:28:31;100555.00;;;4.48;71.61
68654;BME280;55636;51.108;13.622;2023-02-03T04:29:34;100561.06;;;4.50;71.60
68654;BME280;55636;51.108;13.622;2023-02-03T04:30:36;100570.13;;;4.51;71.58
68654;BME280;55636;51.108;13.622;2023-02-03T04:31:38;100565.09;;;4.54;71.55
68654;BME280;55636;51.108;13.622;2023-02-03T04:32:43;100564.63;;;4.57;71.43
68654;BME280;55636;51.108;13.622;2023-02-03T04:33:46;100562.31;;;4.61;71.33
68654;BME280;55636;51.108;13.622;2023-02-03T04:34:48;100565.66;;;4.63;71.20
68654;BME280;55636;51.108;13.622;2023-02-03T04:35:52;100571.78;;;4.65;71.13
68654;BME280;55636;51.108;13.622;2023-02-03T04:36:54;100572.19;;;4.69;71.15
68654;BME280;55636;51.108;13.622;2023-02-03T04:37:56;100572.78;;;4.71;71.15
68654;BME280;55636;51.108;13.622;2023-02-03T04:38:59;100567.09;;;4.72;71.09
68654;BME280;55636;51.108;13.622;2023-02-03T04:40:01;100569.63;;;4.74;71.16
68654;BME280;55636;51.108;13.622;2023-02-03T04:41:04;100558.25;;;4.77;71.08
68654;BME280;55636;51.108;13.622;2023-02-03T04:42:06;100571.94;;;4.77;71.03
68654;BME280;55636;51.108;13.622;2023-02-03T04:43:08;100563.50;;;4.79;70.76
68654;BME280;55636;51.108;13.622;2023-02-03T04:44:12;100561.19;;;4.82;70.87
68654;BME280;55636;51.108;13.622;2023-02-03T04:45:14;100558.44;;;4.82;71.08
68654;BME280;55636;51.108;13.622;2023-02-03T04:46:16;100560.94;;;4.84;71.03
68654;BME280;55636;51.108;13.622;2023-02-03T04:47:19;100558.63;;;4.87;70.63
68654;BME280;55636;51.108;13.622;2023-02-03T04:48:22;100551.00;;;4.89;70.87
68654;BME280;55636;51.108;13.622;2023-02-03T04:49:26;100552.47;;;4.92;70.84
68654;BME280;55636;51.108;13.622;2023-02-03T04:50:28;100555.84;;;4.94;70.80
68654;BME280;55636;51.108;13.622;2023-02-03T04:51:31;100563.00;;;4.95;70.74
68654;BME280;55636;51.108;13.622;2023-02-03T04:52:34;100552.88;;;4.96;70.72
68654;BME280;55636;51.108;13.622;2023-02-03T04:53:36;100556.25;;;4.98;70.71
68654;BME280;55636;51.108;13.622;2023-02-03T04:54:39;100554.97;;;5.00;70.66
68654;BME280;55636;51.108;13.622;2023-02-03T04:55:45;100564.66;;;5.03;70.68
68654;BME280;55636;51.108;13.622;2023-02-03T04:56:47;100560.88;;;5.04;70.71
68654;BME280;55636;51.108;13.622;2023-02-03T04:57:54;100560.44;;;5.07;70.60
68654;BME280;55636;51.108;13.622;2023-02-03T04:58:57;100564.63;;;5.10;70.59
68654;BME280;55636;51.108;13.622;2023-02-03T04:59:59;100558.09;;;5.11;70.50
68654;BME280;55636;51.108;13.622;2023-02-03T05:01:12;100556.81;;;5.13;70.51
68654;BME280;55636;51.108;13.622;2023-02-03T05:02:16;100559.31;;;5.15;70.40
68654;BME280;55636;51.108;13.622;2023-02-03T05:03:18;100562.66;;;5.17;70.29
68654;BME280;55636;51.108;13.622;2023-02-03T05:04:22;100554.25;;;5.18;70.40
68654;BME280;55636;51.108;13.622;2023-02-03T05:05:24;100554.03;;;5.20;70.11
68654;BME280;55636;51.108;13.622;2023-02-03T05:06:27;100548.34;;;5.21;70.30
68654;BME280;55636;51.108;13.622;2023-02-03T05:07:31;100561.56;;;5.24;70.10
68654;BME280;55636;51.108;13.622;2023-02-03T05:08:33;100551.69;;;5.23;70.16
68654;BME280;55636;51.108;13.622;2023-02-03T05:09:35;100543.06;;;5.27;70.09
68654;BME280;55636;51.108;13.622;2023-02-03T05:10:37;100552.09;;;5.27;70.12
68654;BME280;55636;51.108;13.622;2023-02-03T05:11:40;100553.56;;;5.30;70.01
68654;BME280;55636;51.108;13.622;2023-02-03T05:12:43;100543.84;;;5.34;70.02
68654;BME280;55636;51.108;13.622;2023-02-03T05:13:45;100552.06;;;5.34;70.00
68654;BME280;55636;51.108;13.622;2023-02-03T05:14:47;100541.72;;;5.36;69.87
68654;BME280;55636;51.108;13.622;2023-02-03T05:15:50;100540.69;;;5.37;69.85
68654;BME280;55636;51.108;13.622;2023-02-03T05:16:52;100533.28;;;5.37;69.83
68654;BME280;55636;51.108;13.622;2023-02-03T05:17:54;100530.13;;;5.40;69.90
68654;BME280;55636;51.108;13.622;2023-02-03T05:18:56;100536.66;;;5.39;69.65
68654;BME280;55636;51.108;13.622;2023-02-03T05:19:59;100540.00;;;5.41;69.51
68654;BME280;55636;51.108;13.622;2023-02-03T05:21:01;100540.63;;;5.44;69.46
68654;BME280;55636;51.108;13.622;2023-02-03T05:22:03;100536.84;;;5.45;69.29
68654;BME280;55636;51.108;13.622;2023-02-03T05:23:06;100527.56;;;5.46;69.22
68654;BME280;55636;51.108;13.622;2023-02-03T05:24:08;100522.69;;;5.48;69.26
68654;BME280;55636;51.108;13.622;2023-02-03T05:25:10;100519.69;;;5.49;69.18
68654;BME280;55636;51.108;13.622;2023-02-03T05:26:13;100521.38;;;5.50;68.95
68654;BME280;55636;51.108;13.622;2023-02-03T05:27:15;100507.69;;;5.50;69.01
68654;BME280;55636;51.108;13.622;2023-02-03T05:28:18;100513.16;;;5.50;68.84
68654;BME280;55636;51.108;13.622;2023-02-03T05:29:20;100513.16;;;5.50;68.81
68654;BME280;55636;51.108;13.622;2023-02-03T05:30:23;100505.56;;;5.52;68.86
68654;BME280;55636;51.108;13.622;2023-02-03T05:31:25;100508.31;;;5.52;68.68
68654;BME280;55636;51.108;13.622;2023-02-03T05:32:28;100488.91;;;5.54;68.67
68654;BME280;55636;51.108;13.622;2023-02-03T05:33:30;100495.22;;;5.54;68.55
68654;BME280;55636;51.108;13.622;2023-02-03T05:34:32;100485.09;;;5.55;68.46
68654;BME280;55636;51.108;13.622;2023-02-03T05:35:34;100488.69;;;5.55;68.34
68654;BME280;55636;51.108;13.622;2023-02-03T05:36:37;100495.84;;;5.56;68.30
68654;BME280;55636;51.108;13.622;2023-02-03T05:37:39;100493.09;;;5.56;68.30
68654;BME280;55636;51.108;13.622;2023-02-03T05:38:42;100500.25;;;5.57;68.28
68654;BME280;55636;51.108;13.622;2023-02-03T05:39:45;100510.13;;;5.58;68.19
68654;BME280;55636;51.108;13.622;2023-02-03T05:40:48;100490.94;;;5.58;68.08
68654;BME280;55636;51.108;13.622;2023-02-03T05:42:09;100500.03;;;5.59;68.22
68654;BME280;55636;51.108;13.622;2023-02-03T05:43:11;100498.13;;;5.60;67.96
68654;BME280;55636;51.108;13.622;2023-02-03T05:44:13;100511.81;;;5.60;68.04
68654;BME280;55636;51.108;13.622;2023-02-03T05:45:16;100496.25;;;5.60;67.94
68654;BME280;55636;51.108;13.622;2023-02-03T05:46:18;100504.47;;;5.60;67.95
68654;BME280;55636;51.108;13.622;2023-02-03T05:47:22;100493.50;;;5.60;67.91
68654;BME280;55636;51.108;13.622;2023-02-03T05:48:24;100494.31;;;5.61;67.86
68654;BME280;55636;51.108;13.622;2023-02-03T05:49:26;100488.63;;;5.62;67.72
68654;BME280;55636;51.108;13.622;2023-02-03T05:50:29;100491.34;;;5.62;67.82
68654;BME280;55636;51.108;13.622;2023-02-03T05:51:44;100502.31;;;5.62;67.75
68654;BME280;55636;51.108;13.622;2023-02-03T05:52:48;100506.75;;;5.63;67.72
68654;BME280;55636;51.108;13.622;2023-02-03T05:53:53;100521.28;;;5.64;67.69
68654;BME280;55636;51.108;13.622;2023-02-03T05:54:55;100512.00;;;5.65;67.75
68654;BME280;55636;51.108;13.622;2023-02-03T05:55:57;100513.91;;;5.64;67.74
68654;BME280;55636;51.108;13.622;2023-02-03T05:56:59;100519.97;;;5.66;67.80
68654;BME280;55636;51.108;13.622;2023-02-03T05:58:02;100512.84;;;5.65;67.67
68654;BME280;55636;51.108;13.622;2023-02-03T05:59:05;100498.28;;;5.65;67.66